La Malbaie, Canada
Current Conditions -  °F | °C
As of 7:00 AM on Sunday 23 Nov 2014 (Local Time) from CYBG Reporting Station
Snow Showers Snow Showers  
Wind Chill: 26°   Ceiling: 3000
Heat Index: 34°   Visibility: 15mi
Dew Point: 30°   Wind: 10mph
Humidity: 87%   Direction: 280°W
Pressure: 29.89"   Gusts: NA
Location:  47.66°N, 70.15°W
Report Text: CYBG 231200Z 28009KT 15SM -SHSN BKN030 OVC050 01/M01 A2989 RMK SC6SC2 SLP132
Loading
Personal Weather Stations






























Interactive Weather Map New forecast layout! Learn more

10-Day Weather Forecast

Advertisements
Track Severe Weather on mobile